Tiempo atmosférico en la estación meteorológica de Degaña, Asturias (1305 m.)



Fecha
DESCASC
Temp. máxima en grados centígrados (hora)
DESCASC
Temp. mínima en grados centígrados (hora)
DESCASC
Temp. media en grados centígrados
DESCASC
Racha de viento máxima en m/sg (hora)
DESCASC
Velocidad máxima media en intervalos de 10 minutos(hora)
DESCASC
Precipitaciones diarias en mm
DESCASC
Precipitaciones de 00:00 a 06:00 en mm
DESCASC
Precipitaciones de 06:00 a 12:00 en mm
DESCASC
Precipitaciones de 12:00 a 18:00 en mm
DESCASC
Precipitaciones de 18:00 a 24:00 en mm
DESCASC
23-05-2018 19.3 (12:40) 9.1 (23:59) 14.2 7.78 (08:00) 5.56 (08:00) 3 0 0 0.2 2.8
22-05-2018 19.4 (17:10) 6.7 (02:00) 13 7.5 (15:40) 3.89 (03:50) 0 0 0 0 0
21-05-2018 19 (12:00) 8.8 (23:40) 13.9 7.78 (02:10) 5.28 (06:20) 2.8 0 0 2.6 0.2
20-05-2018 18.6 (15:40) 5.8 (00:00) 12.2 13.61 (13:40) 3.33 (18:50) 0 0 0 0 0
19-05-2018 18 (17:20) 6.1 (00:00) 12 8.89 (17:20) 4.17 (01:50) 0 0 0 0 0
18-05-2018 16 (18:20) 3.4 (00:00) 9.7 6.67 (09:00) 4.72 (09:00) 0 0 0 0 0
17-05-2018 16.5 (12:20) 5.6 (00:00) 11 8.89 (15:30) 5.28 (07:20) 0 0 0 0 0
16-05-2018 17 (17:10) 0.6 (00:00) 8.8 7.78 (17:30) 2.78 (18:10) 0 0 0 0 0
15-05-2018 14.1 (16:20) -0.7 (-00:0) 6.7 9.72 (17:20) 5.83 (19:20) 0 0 0 0 0
14-05-2018 10.3 (19:00) 2.5 (00:00) 6.4 10 (12:10) 3.89 (12:10) 18.6 8.4 10.2 0 0
13-05-2018 3.8 (19:40) -0.1 (00:00) 1.8 8.33 (19:00) 1.94 (17:30) 11 0 0 8 3
12-05-2018 6.9 (00:00) 0 (00:00) 3.5 7.5 (21:00) 2.78 (18:30) 3.2 0 1 2.2 0
11-05-2018 14.5 (12:40) 6.4 (05:00) 10.5 7.78 (01:50) 4.44 (01:50) 3.6 0 0 0 3.6
10-05-2018 17.5 (18:00) 4.1 (00:00) 10.8 7.22 (07:50) 4.17 (08:00) 0.4 0.4 0 0 0
09-05-2018 19.2 (15:00) 2.6 (00:00) 10.9 6.94 (15:30) 3.06 (16:00) 0 0 0 0 0
08-05-2018 16.7 (13:10) 5.9 (00:00) 11.3 10.83 (16:20) 5.56 (16:10) 0 0 0 0 0
07-05-2018 20.3 (12:10) 9.5 (00:00) 14.9 7.22 (16:50) 4.44 (00:30) 1.2 0 0 1.2 0
06-05-2018 21.5 (16:00) 9.8 (00:00) 15.7 6.67 (02:10) 5 (02:10) 0 0 0 0 0
05-05-2018 18.9 (16:20) 3.8 (00:00) 11.3 6.39 (14:40) 4.44 (23:40) 0 0 0 0 0
04-05-2018 13.5 (18:10) -1.1 (-00:0) 6.2 8.06 (16:50) 4.17 (00:10) 0 0 0 0 0
03-05-2018 7.3 (17:00) 1.3 (00:00) 4.3 10.56 (11:10) 5.28 (15:50) 2.6 2.2 0.4 0 0
02-05-2018 6.5 (18:20) 0.3 (00:00) 3.4 2.78 (01:40) 1.39 (02:00) 17.6 0 2 7.8 7.8
01-05-2018 9.8 (16:00) -3.8 (07:10) 3 6.67 (14:20) 2.5 (15:50) 0.8 0 0.8 0 0
30-04-2018 3.5 (16:10) -1.1 (-00:0) 1.2 6.67 (15:30) 2.78 (17:00) 7.2 0 1.6 5.2 0.4
29-04-2018 3.9 (14:20) -0.9 (-00:0) 1.5 7.22 (20:20) 1.94 (14:50) 2.4 0 0 2.2 0.2
28-04-2018 9.4 (14:20) 1.3 (00:00) 5.3 7.78 (15:30) 3.89 (14:40) 0 0 0 0 0
27-04-2018 12.8 (16:30) 3.4 (00:00) 8.1 6.94 (10:30) 3.06 (21:30) 0 0 0 0 0
26-04-2018 18.7 (17:40) -0.1 (00:00) 9.3 6.11 (19:10) 2.78 (02:10) 0 0 0 0 0
25-04-2018 17.6 (14:30) 5.3 (00:00) 11.5 8.61 (16:30) 5.28 (16:30) 0 0 0 0 0
24-04-2018 23.5 (16:30) 10.8 (00:00) 17.2 8.06 (20:10) 5 (08:00) 0 0 0 0 0

Gráficas

Temp. máximas Temp. mínimas Temp. medias Precipitaciones Rachas de viento máximas Velocidades máximas media en intervalos de 10 minutos

Datos horarios

Fecha y hora oficial Temperatura (ºC) Velocidad del viento (km/h) Dirección del viento Racha (km/h) Dirección de racha Precipitación (mm) Presión (hPa) Tendencia (hPa) Humedad (%)
2018-05-23 23:00:00 10.5 7 Nordeste 16 Nordeste 0 -- -- 88
2018-05-23 22:00:00 9.9 2 Noroeste 18 Este 0 -- -- 95
2018-05-23 21:00:00 11.2 13 Este 24 Este 0 -- -- 86
2018-05-23 20:00:00 11.3 6 Este 18 Este 0.8 -- -- 89
2018-05-23 19:00:00 11.8 3 Este 9 Sudeste 2 -- -- 95
2018-05-23 18:00:00 12.1 6 Sudeste 26 Este 0.2 -- -- 89
2018-05-23 17:00:00 13 17 Este 27 Este 0 -- -- 78
2018-05-23 16:00:00 14.5 12 Este 24 Sudeste 0 -- -- 67
2018-05-23 15:00:00 16.2 7 Sudeste 17 Norte 0 -- -- 62
2018-05-23 14:00:00 15.6 5 Norte 23 Noroeste 0 -- -- 70
2018-05-23 13:00:00 18.7 6 Noroeste 18 Sudoeste 0 -- -- 53
2018-05-23 12:00:00 17.3 3 Sur 10 Sudeste 0 -- -- 59
2018-05-23 11:00:00 15.4 2 Noroeste 14 Este 0 -- -- 63
2018-05-23 10:00:00 15.2 13 Este 21 Este 0 -- -- 62
2018-05-23 09:00:00 14.2 12 Este 23 Nordeste 0 -- -- 66
2018-05-23 08:00:00 12.3 20 Este 28 Este 0 -- -- 70
2018-05-23 07:00:00 11.9 15 Nordeste 21 Nordeste 0 -- -- 73
2018-05-23 06:00:00 12 7 Nordeste 21 Este 0 -- -- 73
2018-05-23 05:00:00 12.7 11 Nordeste 24 Este 0 -- -- 70
2018-05-23 04:00:00 13.1 15 Nordeste 25 Este 0 -- -- 72
2018-05-23 03:00:00 11.6 0 Calma 22 Este 0 -- -- 80
2018-05-23 02:00:00 10.3 3 Este 11 Este 0 -- -- 79
2018-05-23 01:00:00 9.8 0 Calma 6 Norte 0 -- -- 79
2018-05-23 00:00:00 10.2 0 Calma 3 Noroeste 0 -- -- 89
2018-05-22 23:00:00 10.8 0 Calma 4 Noroeste 0 -- -- 85
2018-05-22 22:00:00 13.2 0 Calma 7 Sur 0 -- -- 76
2018-05-22 21:00:00 14.3 3 Sur 14 Oeste 0 -- -- 70
2018-05-22 20:00:00 16.4 4 Norte 20 Norte 0 -- -- 63
2018-05-22 19:00:00 16.6 9 Norte 17 Noroeste 0 -- -- 57
2018-05-22 18:00:00 17.4 10 Norte 21 Noroeste 0 -- -- 49
2018-05-22 17:00:00 18.9 10 Noroeste 26 Noroeste 0 -- -- 46
2018-05-22 16:00:00 18.7 8 Nordeste 27 Noroeste 0 -- -- 49
2018-05-22 15:00:00 17.3 7 Norte 24 Noroeste 0 -- -- 51
2018-05-22 14:00:00 17.5 9 Noroeste 21 Noroeste 0 -- -- 50
2018-05-22 13:00:00 16.5 9 Noroeste 18 Noroeste 0 -- -- 49
2018-05-22 12:00:00 17.7 8 Sudeste 15 Sudeste 0 -- -- 58
2018-05-22 11:00:00 15.7 3 Este 12 Sudeste 0 -- -- 59
2018-05-22 10:00:00 14.7 4 Sudeste 20 Nordeste 0 -- -- 67
2018-05-22 09:00:00 12.4 8 Este 15 Este 0 -- -- 75
2018-05-22 08:00:00 7.7 3 Noroeste 10 Nordeste 0 -- -- 90
2018-05-22 07:00:00 9.7 7 Nordeste 19 Nordeste 0 -- -- 81
2018-05-22 06:00:00 9.8 9 Nordeste 16 Nordeste 0 -- -- 79
2018-05-22 05:00:00 9.9 12 Nordeste 18 Nordeste 0 -- -- 78
2018-05-22 04:00:00 9.9 11 Nordeste 21 Este 0 -- -- 81
2018-05-22 03:00:00 10 12 Nordeste 18 Nordeste 0 -- -- 82
2018-05-22 02:00:00 6.7 2 Noroeste 5 Noroeste 0 -- -- 93
2018-05-22 01:00:00 8.6 2 Noroeste 9 Norte 0 -- -- 91
2018-05-22 00:00:00 9.2 5 Norte 12 Norte 0 -- -- 90
2018-05-21 23:00:00 9.2 2 Oeste 5 Noroeste 0 -- -- 94
2018-05-21 22:00:00 10.4 0 Calma 5 Norte 0 -- -- 92
2018-05-21 21:00:00 11.1 0 Calma 15 Este 0 -- -- 85
2018-05-21 20:00:00 11.6 9 Nordeste 15 Nordeste 0 -- -- 78
2018-05-21 19:00:00 11 0 Calma 5 Noroeste 0.2 -- -- 90
2018-05-21 18:00:00 11.6 2 Norte 12 Nordeste 0.4 -- -- 86
2018-05-21 17:00:00 13.1 4 Oeste 17 Noroeste 0 -- -- 68
2018-05-21 16:00:00 12.9 12 Nordeste 26 Este 0 -- -- 64
2018-05-21 15:00:00 10.3 5 Este 19 Norte 0.2 -- -- 86
2018-05-21 14:00:00 10.7 15 Norte 26 Nordeste 2 -- -- 77
2018-05-21 13:00:00 14 11 Sudeste 23 Oeste 0 -- -- 63
2018-05-21 12:00:00 19 6 Sudeste 16 Sur 0 -- -- 47
2018-05-21 11:00:00 17.1 7 Sudeste 14 Sur 0 -- -- 51
2018-05-21 10:00:00 14.8 4 Sudeste 7 Este 0 -- -- 62
2018-05-21 09:00:00 13.2 3 Este 21 Este 0 -- -- 66
2018-05-21 08:00:00 10.3 13 Nordeste 25 Este 0 -- -- 72
2018-05-21 07:00:00 9.8 15 Nordeste 27 Este 0 -- -- 74
2018-05-21 06:00:00 10 17 Nordeste 26 Nordeste 0 -- -- 73
2018-05-21 05:00:00 10.1 17 Nordeste 26 Este 0 -- -- 71
2018-05-21 04:00:00 10.6 16 Nordeste 24 Este 0 -- -- 68
2018-05-21 03:00:00 10.9 17 Nordeste 28 Este 0 -- -- 64
2018-05-21 02:00:00 12.3 7 Nordeste 19 Nordeste 0 -- -- 56
2018-05-21 01:00:00 11.9 12 Nordeste 21 Nordeste 0 -- -- 69
2018-05-21 00:00:00 11.9 11 Este 17 Este 0 -- -- 71
2018-05-20 23:00:00 8.5 2 Noroeste 4 Noroeste 0 -- -- 82
2018-05-20 22:00:00 11 0 Calma 5 Nordeste 0 -- -- 71
2018-05-20 21:00:00 13.9 2 Sur 13 Oeste 0 -- -- 60
2018-05-20 20:00:00 16.6 6 Oeste 23 Noroeste 0 -- -- 53
2018-05-20 19:00:00 17 10 Noroeste 24 Noroeste 0 -- -- 52
2018-05-20 18:00:00 17.9 7 Oeste 29 Noroeste 0 -- -- 50
2018-05-20 17:00:00 18.3 10 Noroeste 27 Noroeste 0 -- -- 49
2018-05-20 16:00:00 18.4 8 Noroeste 24 Noroeste 0 -- -- 48
2018-05-20 15:00:00 17.9 6 Norte 25 Noroeste 0 -- -- 47
2018-05-20 14:00:00 17.7 8 Nordeste 49 Norte 0 -- -- 39
2018-05-20 13:00:00 16.8 8 Noroeste 26 Noroeste 0 -- -- 39
2018-05-20 12:00:00 17.1 8 Sudeste 16 Sudoeste 0 -- -- 43
2018-05-20 11:00:00 15.8 5 Sur 13 Sudoeste 0 -- -- 51
2018-05-20 10:00:00 14.9 6 Sudeste 10 Sudeste 0 -- -- 53
2018-05-20 09:00:00 11.8 2 Este 5 Sur 0 -- -- 59
2018-05-20 08:00:00 6.1 3 Noroeste 6 Noroeste 0 -- -- 87
2018-05-20 07:00:00 5.8 5 Noroeste 5 Noroeste 0 -- -- 85
2018-05-20 06:00:00 6.3 3 Noroeste 7 Noroeste 0 -- -- 82
2018-05-20 05:00:00 6.3 5 Noroeste 8 Noroeste 0 -- -- 69
2018-05-20 04:00:00 6.2 3 Noroeste 7 Noroeste 0 -- -- 60
2018-05-20 03:00:00 6.8 3 Noroeste 16 Nordeste 0 -- -- 56
2018-05-20 02:00:00 9.4 5 Este 17 Este 0 -- -- 62
2018-05-20 01:00:00 9.9 9 Nordeste 18 Nordeste 0 -- -- 68
2018-05-20 00:00:00 6.9 3 Norte 9 Nordeste 0 -- -- 81
2018-05-19 23:00:00 7.8 3 Noroeste 4 Noroeste 0 -- -- 90
2018-05-19 22:00:00 10.7 0 Calma 9 Oeste 0 -- -- 81
2018-05-19 21:00:00 13.6 2 Sudoeste 18 Nordeste 0 -- -- 71
2018-05-19 20:00:00 15.4 6 Nordeste 23 Este 0 -- -- 64
2018-05-19 19:00:00 16.4 11 Oeste 32 Noroeste 0 -- -- 61
2018-05-19 18:00:00 17.1 13 Nordeste 32 Noroeste 0 -- -- 61
2018-05-19 17:00:00 17.6 12 Noroeste 28 Noroeste 0 -- -- 59
2018-05-19 16:00:00 16.8 10 Norte 27 Nordeste 0 -- -- 60
2018-05-19 15:00:00 16.6 5 Noroeste 24 Noroeste 0 -- -- 62
2018-05-19 14:00:00 16.5 8 Noroeste 27 Oeste 0 -- -- 63
2018-05-19 13:00:00 17.1 9 Noroeste 22 Noroeste 0 -- -- 54
2018-05-19 12:00:00 17.4 8 Sudeste 20 Sudeste 0 -- -- 50
2018-05-19 11:00:00 15.4 7 Sudeste 19 Sudeste 0 -- -- 63
2018-05-19 10:00:00 12.5 12 Este 18 Este 0 -- -- 73
2018-05-19 09:00:00 11.2 10 Este 16 Este 0 -- -- 79
2018-05-19 08:00:00 6.8 4 Noroeste 8 Noroeste 0 -- -- 96
2018-05-19 07:00:00 6.1 4 Noroeste 6 Noroeste 0 -- -- 95
2018-05-19 06:00:00 6.5 2 Oeste 6 Noroeste 0 -- -- 93
2018-05-19 05:00:00 6.9 4 Noroeste 10 Nordeste 0 -- -- 91
2018-05-19 04:00:00 9.8 6 Nordeste 16 Este 0 -- -- 80
2018-05-19 03:00:00 10.4 9 Nordeste 20 Este 0 -- -- 78
2018-05-19 02:00:00 10.8 14 Este 23 Este 0 -- -- 79
2018-05-19 01:00:00 10.9 8 Sudeste 20 Este 0 -- -- 78
2018-05-19 00:00:00 11.9 13 Nordeste 21 Nordeste 0 -- -- 74
2018-05-18 23:00:00 10.4 2 Norte 9 Este 0 -- -- 94
2018-05-18 22:00:00 10.8 0 Calma 5 Sur 0 -- -- 89
2018-05-18 21:00:00 13.1 0 Calma 8 Sur 0 -- -- 82
2018-05-18 20:00:00 14.5 2 Sur 9 Sur 0 -- -- 77
2018-05-18 19:00:00 15.2 2 Norte 14 Sudoeste 0 -- -- 73
2018-05-18 18:00:00 15.3 3 Sudeste 19 Sudeste 0 -- -- 71
2018-05-18 17:00:00 15.2 5 Sur 15 Sudeste 0 -- -- 72
2018-05-18 16:00:00 14.1 4 Sur 13 Sur 0 -- -- 73
2018-05-18 15:00:00 13 3 Oeste 12 Sur 0 -- -- 75
2018-05-18 14:00:00 12.2 4 Noroeste 12 Sudoeste 0 -- -- 75
2018-05-18 13:00:00 13.4 6 Oeste 23 Sudoeste 0 -- -- 69
2018-05-18 12:00:00 13.9 6 Sudeste 15 Sur 0 -- -- 62
2018-05-18 11:00:00 11.8 4 Sur 15 Sur 0 -- -- 72
2018-05-18 10:00:00 10.8 5 Sudeste 21 Este 0 -- -- 71
2018-05-18 09:00:00 8.8 17 Este 24 Este 0 -- -- 75
2018-05-18 08:00:00 4.7 0 Calma 11 Este 0 -- -- 92
2018-05-18 07:00:00 3.7 3 Noroeste 5 Noroeste 0 -- -- 94
2018-05-18 06:00:00 4.4 0 Calma 8 Nordeste 0 -- -- 89
2018-05-18 05:00:00 6.1 4 Norte 10 Nordeste 0 -- -- 83
2018-05-18 04:00:00 7.6 4 Nordeste 20 Este 0 -- -- 78
2018-05-18 03:00:00 8.2 13 Nordeste 22 Nordeste 0 -- -- 76
2018-05-18 02:00:00 7.9 12 Nordeste 19 Nordeste 0 -- -- 77
2018-05-18 01:00:00 8.5 12 Nordeste 20 Este 0 -- -- 71
2018-05-18 00:00:00 8.8 7 Sudeste 18 Nordeste 0 -- -- 72
2018-05-17 23:00:00 8.8 0 Calma 5 Sudoeste 0 -- -- 88
2018-05-17 22:00:00 10.2 2 Sudeste 18 Noroeste 0 -- -- 84
2018-05-17 21:00:00 11.7 11 Noroeste 21 Noroeste 0 -- -- 79
2018-05-17 20:00:00 13.1 13 Norte 23 Norte 0 -- -- 72
2018-05-17 19:00:00 13.5 8 Nordeste 25 Este 0 -- -- 54
2018-05-17 18:00:00 15.3 8 Este 22 Nordeste 0 -- -- 47
2018-05-17 17:00:00 13.9 11 Este 32 Este 0 -- -- 49
2018-05-17 16:00:00 14.9 12 Nordeste 32 Nordeste 0 -- -- 58
2018-05-17 15:00:00 14.6 15 Nordeste 29 Norte 0 -- -- 64
2018-05-17 14:00:00 15.2 8 Norte 21 Sur 0 -- -- 62
2018-05-17 13:00:00 16.5 9 Sudoeste 18 Sudeste 0 -- -- 52
2018-05-17 12:00:00 15.6 6 Sur 14 Sudeste 0 -- -- 55
2018-05-17 11:00:00 15 8 Sur 15 Sur 0 -- -- 59
2018-05-17 10:00:00 13.4 5 Sudeste 21 Este 0 -- -- 58
2018-05-17 09:00:00 10.8 15 Nordeste 23 Este 0 -- -- 58
2018-05-17 08:00:00 9 18 Nordeste 26 Este 0 -- -- 61
2018-05-17 07:00:00 9 18 Este 26 Este 0 -- -- 62
2018-05-17 06:00:00 9.3 10 Este 26 Este 0 -- -- 63
2018-05-17 05:00:00 9.6 17 Nordeste 26 Este 0 -- -- 66
2018-05-17 04:00:00 9.8 16 Este 22 Este 0 -- -- 71
2018-05-17 03:00:00 7.4 11 Este 19 Este 0 -- -- 88
2018-05-17 02:00:00 6.4 0 Calma 3 Oeste 0 -- -- 96
2018-05-17 01:00:00 7.8 0 Calma 4 Sudeste 0 -- -- 98
2018-05-17 00:00:00 8 3 Nordeste 4 Nordeste 0 -- -- 97
2018-05-16 23:00:00 8.5 0 Calma 4 Sur 0 -- -- 96
2018-05-16 22:00:00 9.1 0 Calma 6 Noroeste 0 -- -- 92
2018-05-16 21:00:00 10.5 2 Nordeste 8 Noroeste 0 -- -- 87
2018-05-16 20:00:00 12.1 3 Este 12 Este 0 -- -- 79
2018-05-16 19:00:00 14.1 8 Oeste 22 Norte 0 -- -- 71
2018-05-16 18:00:00 15.6 10 Noroeste 28 Noroeste 0 -- -- 67
2018-05-16 17:00:00 16.8 6 Sur 18 Sur 0 -- -- 57
2018-05-16 16:00:00 15.9 8 Sur 21 Sudoeste 0 -- -- 62
2018-05-16 15:00:00 14.9 7 Sur 19 Sur 0 -- -- 64
2018-05-16 14:00:00 13.8 7 Sur 18 Sur 0 -- -- 67
2018-05-16 13:00:00 12.2 6 Sudeste 15 Sur 0 -- -- 71
2018-05-16 12:00:00 10.2 5 Sur 15 Sur 0 -- -- 78
2018-05-16 11:00:00 9.1 3 Sudeste 14 Sur 0 -- -- 79
2018-05-16 10:00:00 6.5 3 Noroeste 11 Sur 0 -- -- 88
2018-05-16 09:00:00 3.8 0 Calma 3 Este 0 -- -- 100
2018-05-16 08:00:00 1.8 0 Calma 3 Norte 0 -- -- 98
2018-05-16 07:00:00 1.6 0 Calma 14 Nordeste 0 -- -- 94
2018-05-16 06:00:00 2.2 3 Este 12 Nordeste 0 -- -- 95
2018-05-16 05:00:00 1 2 Noroeste 4 Noroeste 0 -- -- 97
2018-05-16 04:00:00 1.4 2 Oeste 5 Noroeste 0 -- -- 92
2018-05-16 03:00:00 1.1 0 Calma 4 Noroeste 0 -- -- 90
2018-05-16 02:00:00 1.9 2 Noroeste 5 Noroeste 0 -- -- 91
2018-05-16 01:00:00 4.1 0 Calma 6 Sudeste 0 -- -- 91
2018-05-16 00:00:00 6.1 2 Este 4 Este 0 -- -- 94
2018-05-15 23:00:00 6.5 0 Calma 5 Sur 0 -- -- 94
2018-05-15 22:00:00 7.2 0 Calma 8 Sur 0 -- -- 91
2018-05-15 21:00:00 8.6 5 Sur 25 Norte 0 -- -- 85
2018-05-15 20:00:00 11.3 15 Norte 32 Norte 0 -- -- 67
2018-05-15 19:00:00 12.2 19 Norte 34 Nordeste 0 -- -- 58
2018-05-15 18:00:00 13 17 Nordeste 35 Nordeste 0 -- -- 53
2018-05-15 17:00:00 13.8 9 Noroeste 33 Oeste 0 -- -- 47
2018-05-15 16:00:00 13.9 10 Noroeste 27 Nordeste 0 -- -- 48
2018-05-15 15:00:00 13.3 10 Este 35 Nordeste 0 -- -- 43
2018-05-15 14:00:00 13.1 6 Noroeste 25 Oeste 0 -- -- 46
2018-05-15 13:00:00 12.5 7 Sur 19 Sudoeste 0 -- -- 46
2018-05-15 12:00:00 10.9 5 Sur 13 Sur 0 -- -- 41
2018-05-15 11:00:00 8.5 4 Sudoeste 15 Sur 0 -- -- 45
2018-05-15 10:00:00 7 4 Sur 12 Sudoeste 0 -- -- 43
2018-05-15 09:00:00 5 3 Sur 6 Sudoeste 0 -- -- 54
2018-05-15 08:00:00 0.5 5 Noroeste 9 Oeste 0 -- -- 63
2018-05-15 07:00:00 -0.6 3 Oeste 6 Noroeste 0 -- -- 71
2018-05-15 06:00:00 -0.6 3 Oeste 7 Noroeste 0 -- -- 79
2018-05-15 05:00:00 0 2 Noroeste 5 Noroeste 0 -- -- 89
2018-05-15 04:00:00 2.7 0 Calma 15 Este 0 -- -- 58
2018-05-15 03:00:00 2.8 7 Nordeste 15 Norte 0 -- -- 43
2018-05-15 02:00:00 0.5 0 Calma 4 Noroeste 0 -- -- 93
2018-05-15 01:00:00 0.8 0 Calma 8 Nordeste 0 -- -- 89
2018-05-15 00:00:00 2.5 0 Calma 16 Noroeste 0 -- -- 90
2018-05-14 23:00:00 3.7 2 Noroeste 13 Noroeste 0 -- -- 89
2018-05-14 22:00:00 5.9 3 Norte 16 Nordeste 0 -- -- 80
2018-05-14 21:00:00 7.7 8 Nordeste 19 Nordeste 0 -- -- 75
2018-05-14 20:00:00 9.3 13 Nordeste 23 Nordeste 0 -- -- 67
2018-05-14 19:00:00 10.3 4 Sur 21 Noroeste 0 -- -- 61
2018-05-14 18:00:00 9.5 8 Nordeste 24 Este 0 -- -- 65
2018-05-14 17:00:00 9.8 8 Nordeste 28 Norte 0 -- -- 63
2018-05-14 16:00:00 9 4 Sudoeste 23 Este 0 -- -- 63
2018-05-14 15:00:00 8.3 6 Noroeste 26 Norte 0 -- -- 72
2018-05-14 14:00:00 8.4 6 Sudeste 33 Este 0 -- -- 74
2018-05-14 13:00:00 7.3 8 Sur 36 Sur 0 -- -- 87
2018-05-14 12:00:00 6.2 9 Sudoeste 29 Norte 0.2 -- -- 96
2018-05-14 11:00:00 6.2 3 Sur 20 Sudeste 1.2 -- -- 100
2018-05-14 10:00:00 5.7 4 Nordeste 16 Sudoeste 2 -- -- 100
2018-05-14 09:00:00 5.3 5 Oeste 18 Oeste 2.4 -- -- 100
2018-05-14 08:00:00 5.2 6 Oeste 29 Oeste 2.2 -- -- 100
2018-05-14 07:00:00 4.9 5 Sudoeste 23 Sudoeste 2.2 -- -- 100
2018-05-14 06:00:00 4.7 6 Oeste 31 Noroeste 1.6 -- -- 100
2018-05-14 05:00:00 4.3 5 Oeste 17 Sudoeste 1.8 -- -- 100
2018-05-14 04:00:00 3.8 3 Sur 14 Sudoeste 2 -- -- 100
2018-05-14 03:00:00 3.6 4 Noroeste 13 Noroeste 1.2 -- -- 100
2018-05-14 02:00:00 3.4 4 Noroeste 13 Sudoeste 1.2 -- -- 100
2018-05-14 01:00:00 3.3 2 Norte 15 Noroeste 0.6 -- -- 100
2018-05-11 20:00:00 -- -- -- -- -- -- -- -- --
2018-05-11 19:00:00 -- -- -- -- -- -- -- -- --
2018-05-11 18:00:00 -- -- -- -- -- -- -- -- --
2018-05-11 17:00:00 13.7 6 Noroeste 24 Noroeste 0 -- -- 34
2018-05-11 16:00:00 13 6 Noroeste 20 Oeste 0 -- -- 28
2018-05-11 15:00:00 12.6 4 Norte 23 Sudeste 0 -- -- 44
2018-05-11 14:00:00 12.9 7 Sudeste 21 Nordeste 0 -- -- 50
2018-05-11 13:00:00 14.1 5 Sudeste 16 Sur 0 -- -- 49
2018-05-11 12:00:00 13.7 5 Sur 17 Sudeste 0 -- -- 55
2018-05-11 11:00:00 12.7 3 Este 12 Sudeste 0 -- -- 60
2018-05-11 10:00:00 11.4 3 Este 25 Sur 0 -- -- 62
2018-05-11 09:00:00 10.6 3 Noroeste 12 Sudoeste 0 -- -- 62
2018-05-11 08:00:00 8.9 2 Norte 12 Sudeste 0 -- -- 69
2018-05-11 07:00:00 10 5 Noroeste 16 Noroeste 0 -- -- 63
2018-05-11 06:00:00 7.6 2 Noroeste 12 Noroeste 0 -- -- 72
2018-05-11 05:00:00 6.4 3 Norte 8 Noroeste 0 -- -- 78
2018-05-11 04:00:00 7.9 2 Oeste 17 Sur 0 -- -- 71
2018-05-11 03:00:00 9 4 Sur 26 Este 0 -- -- 66
2018-05-11 02:00:00 9.9 15 Nordeste 28 Nordeste 0 -- -- 62
2018-05-11 01:00:00 10.3 14 Nordeste 22 Nordeste 0 -- -- 63
2018-05-11 00:00:00 9.6 6 Este 15 Este 0 -- -- 67
2018-05-10 23:00:00 9.1 2 Nordeste 8 Oeste 0 -- -- 71
2018-05-10 22:00:00 9.4 3 Oeste 6 Oeste 0 -- -- 78
2018-05-10 21:00:00 12.3 0 Calma 11 Oeste 0 -- -- 72
2018-05-10 20:00:00 14.6 3 Noroeste 12 Noroeste 0 -- -- 64
2018-05-10 19:00:00 16.2 4 Nordeste 16 Este 0 -- -- 58
2018-05-10 18:00:00 17.5 5 Sudeste 17 Sudoeste 0 -- -- 54
2018-05-10 17:00:00 17 5 Este 21 Sudeste 0 -- -- 53
2018-05-10 16:00:00 16.6 5 Oeste 19 Sudeste 0 -- -- 51
2018-05-10 15:00:00 15.6 6 Sur 17 Sudoeste 0 -- -- 52
2018-05-10 14:00:00 14 6 Sudoeste 17 Sur 0 -- -- 59
2018-05-10 13:00:00 11.7 9 Sur 20 Sur 0 -- -- 65
2018-05-10 12:00:00 10.1 4 Oeste 19 Sur 0 -- -- 71
2018-05-10 11:00:00 7.8 5 Oeste 14 Oeste 0 -- -- 83
2018-05-10 10:00:00 6 3 Sudoeste 10 Sudoeste 0 -- -- 89
2018-05-10 09:00:00 5.6 3 Sur 24 Nordeste 0 -- -- 89
2018-05-10 08:00:00 4.2 15 Nordeste 26 Este 0 -- -- 87
2018-05-10 07:00:00 4.5 8 Este 22 Norte 0 -- -- 88
2018-05-10 06:00:00 4.7 4 Este 20 Este 0 -- -- 91
2018-05-10 05:00:00 4.8 4 Este 18 Oeste 0 -- -- 91
2018-05-10 04:00:00 4.9 6 Este 15 Sudeste 0.2 -- -- 94
2018-05-10 03:00:00 4.8 3 Sur 9 Sur 0.2 -- -- 97
2018-05-10 02:00:00 5.2 3 Sur 17 Norte 0 -- -- 92
2018-05-10 01:00:00 5.3 0 Calma 18 Noroeste 0 -- -- 89
2018-05-10 00:00:00 5.8 8 Noroeste 21 Noroeste 0 -- -- 81
2018-05-09 23:00:00 6.6 3 Nordeste 14 Oeste 0 -- -- 84
2018-05-09 22:00:00 7.5 5 Oeste 23 Sudoeste 0 -- -- 77
2018-05-09 21:00:00 8.9 7 Noroeste 21 Noroeste 0 -- -- 76
2018-05-09 20:00:00 10.1 5 Oeste 19 Oeste 0 -- -- 75
2018-05-09 19:00:00 11.8 3 Este 21 Noroeste 0 -- -- 75
2018-05-09 18:00:00 10.8 9 Noroeste 23 Noroeste 0 -- -- 83
2018-05-09 17:00:00 13.1 8 Noroeste 22 Noroeste 0 -- -- 73
2018-05-09 16:00:00 15.1 11 Noroeste 25 Noroeste 0 -- -- 62
2018-05-09 15:00:00 19.2 6 Sudeste 21 Sudoeste 0 -- -- 43
2018-05-09 14:00:00 18 6 Este 22 Sur 0 -- -- 45
2018-05-09 13:00:00 17.1 5 Nordeste 21 Sur 0 -- -- 56
2018-05-09 12:00:00 15.3 4 Este 16 Sur 0 -- -- 56
2018-05-09 11:00:00 13.3 3 Este 12 Sur 0 -- -- 56
2018-05-09 10:00:00 11 4 Sudeste 6 Sudeste 0 -- -- 66
2018-05-09 09:00:00 8.1 2 Este 8 Sudoeste 0 -- -- 75
2018-05-09 08:00:00 4.4 4 Noroeste 6 Noroeste 0 -- -- 88
2018-05-09 07:00:00 3.5 4 Noroeste 6 Noroeste 0 -- -- 94
2018-05-09 06:00:00 2.8 0 Calma 5 Oeste 0 -- -- 96
2018-05-09 05:00:00 3.9 3 Oeste 5 Noroeste 0 -- -- 96
2018-05-09 04:00:00 4.3 2 Noroeste 5 Oeste 0 -- -- 97
2018-05-09 03:00:00 6.1 2 Noroeste 4 Noroeste 0 -- -- 94
2018-05-09 02:00:00 6.7 0 Calma 4 Norte 0 -- -- 94
2018-05-09 01:00:00 6.8 0 Calma 5 Norte 0 -- -- 96
2018-05-09 00:00:00 5.9 2 Oeste 5 Noroeste 0 -- -- 88
2018-05-08 23:00:00 7.3 0 Calma 4 Nordeste 0 -- -- 81
2018-05-08 22:00:00 10.1 0 Calma 18 Norte 0 -- -- 72
2018-05-08 21:00:00 11.9 3 Norte 18 Nordeste 0 -- -- 63
2018-05-08 20:00:00 14 8 Oeste 22 Este 0 -- -- 52
2018-05-08 19:00:00 14.7 6 Sudeste 23 Este 0 -- -- 53
2018-05-08 18:00:00 15.2 10 Noroeste 27 Este 0 -- -- 59
2018-05-08 17:00:00 14.9 11 Noroeste 39 Oeste 0 -- -- 66
2018-05-08 16:00:00 15 14 Noroeste 33 Oeste 0 -- -- 66
2018-05-08 15:00:00 16.1 13 Norte 30 Noroeste 0 -- -- 64
2018-05-08 14:00:00 16 10 Norte 27 Norte 0 -- -- 56
2018-05-08 13:00:00 16.3 9 Sur 21 Sudoeste 0 -- -- 63
2018-05-08 12:00:00 12.9 4 Sur 17 Sur 0 -- -- 83
2018-05-08 11:00:00 11 3 Sur 12 Sur 0 -- -- 90
2018-05-08 10:00:00 11.1 3 Sudoeste 10 Sur 0 -- -- 88
2018-05-08 09:00:00 9.9 3 Sudeste 6 Sudeste 0 -- -- 91
2018-05-08 08:00:00 6.8 0 Calma 5 Sudoeste 0 -- -- 96
2018-05-08 07:00:00 6.5 4 Noroeste 7 Noroeste 0 -- -- 96
2018-05-08 06:00:00 7.6 3 Noroeste 7 Noroeste 0 -- -- 92
2018-05-08 05:00:00 7.4 0 Calma 3 Norte 0 -- -- 92
2018-05-08 04:00:00 8.5 2 Oeste 9 Oeste 0 -- -- 88
2018-05-08 03:00:00 8.4 3 Noroeste 7 Noroeste 0 -- -- 89
2018-05-08 02:00:00 8.7 5 Noroeste 8 Noroeste 0 -- -- 88
2018-05-08 01:00:00 9.3 5 Oeste 9 Oeste 0 -- -- 90
2018-05-08 00:00:00 9.9 0 Calma 6 Noroeste 0 -- -- 94
2018-05-07 23:00:00 9.7 4 Noroeste 6 Noroeste 0 -- -- 94
2018-05-07 22:00:00 11.3 2 Oeste 6 Noroeste 0 -- -- 90
2018-05-07 21:00:00 14.5 3 Sur 17 Noroeste 0 -- -- 82
2018-05-07 20:00:00 15.7 3 Sudeste 8 Sudeste 0 -- -- 77
2018-05-07 19:00:00 14.1 0 Calma 6 Oeste 0 -- -- 81
2018-05-07 18:00:00 13.1 4 Este 19 Nordeste 1.2 -- -- 84
2018-05-07 17:00:00 14.9 14 Este 26 Este 0 -- -- 68
2018-05-07 16:00:00 18.3 3 Sur 26 Noroeste 0 -- -- 57
2018-05-07 15:00:00 19.2 9 Oeste 20 Noroeste 0 -- -- 51
2018-05-07 14:00:00 19.2 9 Este 23 Nordeste 0 -- -- 48
2018-05-07 13:00:00 18.5 10 Noroeste 21 Oeste 0 -- -- 46
2018-05-07 12:00:00 19.5 6 Sur 15 Sudeste 0 -- -- 43
2018-05-07 11:00:00 18.9 6 Sudeste 14 Sudeste 0 -- -- 49
2018-05-07 10:00:00 16.7 8 Este 13 Este 0 -- -- 57
2018-05-07 09:00:00 14.4 9 Nordeste 20 Nordeste 0 -- -- 62
2018-05-07 08:00:00 12.6 14 Nordeste 21 Nordeste 0 -- -- 69
2018-05-07 07:00:00 12.2 13 Nordeste 21 Nordeste 0 -- -- 73
2018-05-07 06:00:00 12.1 11 Nordeste 18 Nordeste 0 -- -- 73
2018-05-07 05:00:00 12.3 10 Nordeste 17 Este 0 -- -- 74
2018-05-07 04:00:00 12.7 9 Este 22 Nordeste 0 -- -- 73
2018-05-07 03:00:00 11.9 6 Nordeste 16 Nordeste 0 -- -- 81
2018-05-07 02:00:00 12.3 4 Norte 21 Este 0 -- -- 77
2018-05-07 01:00:00 13.4 15 Este 22 Nordeste 0 -- -- 79
2018-05-07 00:00:00 10 0 Calma 4 Noroeste 0 -- -- 88
2018-05-06 23:00:00 10.8 2 Norte 4 Noroeste 0 -- -- 83
2018-05-06 22:00:00 13.8 0 Calma 13 Norte 0 -- -- 73
2018-05-06 21:00:00 15.3 8 Noroeste 16 Noroeste 0 -- -- 70
2018-05-06 20:00:00 17.2 10 Noroeste 23 Oeste 0 -- -- 64
2018-05-06 19:00:00 18.8 6 Norte 21 Noroeste 0 -- -- 59
2018-05-06 18:00:00 18.9 12 Noroeste 23 Oeste 0 -- -- 52
2018-05-06 17:00:00 20.6 5 Oeste 14 Oeste 0 -- -- 38
2018-05-06 16:00:00 21.5 6 Este 22 Sudeste 0 -- -- 42
2018-05-06 15:00:00 19.5 6 Sudeste 21 Noroeste 0 -- -- 44
2018-05-06 14:00:00 17.6 4 Norte 20 Este 0 -- -- 50
2018-05-06 13:00:00 18.1 8 Sur 18 Sudeste 0 -- -- 50
2018-05-06 12:00:00 17.6 9 Sudeste 17 Este 0 -- -- 51
2018-05-06 11:00:00 14.9 9 Nordeste 22 Este 0 -- -- 61
2018-05-06 10:00:00 12.8 14 Este 24 Nordeste 0 -- -- 67
2018-05-06 09:00:00 11.9 9 Este 18 Este 0 -- -- 69
2018-05-06 08:00:00 10.2 13 Nordeste 19 Nordeste 0 -- -- 73
2018-05-06 07:00:00 10.6 14 Nordeste 21 Este 0 -- -- 71
2018-05-06 06:00:00 10.8 12 Nordeste 19 Este 0 -- -- 69
2018-05-06 05:00:00 10.9 11 Nordeste 17 Este 0 -- -- 69
2018-05-06 04:00:00 10.9 10 Nordeste 19 Nordeste 0 -- -- 73
2018-05-06 03:00:00 10.6 14 Nordeste 24 Nordeste 0 -- -- 75
2018-05-06 02:00:00 10.6 14 Nordeste 22 Nordeste 0 -- -- 75
2018-05-06 01:00:00 11.1 14 Este 21 Este 0 -- -- 74
2018-05-06 00:00:00 12 14 Este 23 Este 0 -- -- 72
2018-05-05 23:00:00 8 2 Noroeste 9 Norte 0 -- -- 90
2018-05-05 22:00:00 9.7 0 Calma 4 Sur 0 -- -- 81
2018-05-05 21:00:00 12.4 3 Noroeste 11 Sur 0 -- -- 75
2018-05-05 20:00:00 15.1 5 Sur 18 Oeste 0 -- -- 66
2018-05-05 19:00:00 17.2 6 Sur 18 Oeste 0 -- -- 59
2018-05-05 18:00:00 17.9 4 Noroeste 21 Oeste 0 -- -- 56
2018-05-05 17:00:00 17.9 7 Noroeste 22 Noroeste 0 -- -- 54
2018-05-05 16:00:00 18.2 8 Noroeste 19 Sudeste 0 -- -- 51
2018-05-05 15:00:00 18.7 8 Sudeste 23 Sur 0 -- -- 50
2018-05-05 14:00:00 18.4 8 Sudeste 19 Sudeste 0 -- -- 45
2018-05-05 13:00:00 17.1 6 Sudoeste 19 Sur 0 -- -- 40
2018-05-05 12:00:00 14.9 5 Sudoeste 15 Sur 0 -- -- 39
2018-05-05 11:00:00 14.3 5 Sur 13 Sudeste 0 -- -- 42
2018-05-05 10:00:00 13.6 6 Sur 11 Este 0 -- -- 41
2018-05-05 09:00:00 10.1 5 Nordeste 8 Este 0 -- -- 48
2018-05-05 08:00:00 4.8 3 Noroeste 7 Noroeste 0 -- -- 70
2018-05-05 07:00:00 4.5 4 Oeste 8 Noroeste 0 -- -- 69
2018-05-05 06:00:00 6.8 2 Oeste 15 Nordeste 0 -- -- 54
2018-05-05 05:00:00 8.9 10 Este 19 Este 0 -- -- 38
2018-05-05 04:00:00 8.4 10 Este 21 Nordeste 0 -- -- 35
2018-05-05 03:00:00 7.4 12 Nordeste 18 Nordeste 0 -- -- 35
2018-05-05 02:00:00 6 6 Nordeste 21 Nordeste 0 -- -- 58
2018-05-05 01:00:00 7.6 15 Este 19 Este 0 -- -- 43
2018-05-05 00:00:00 6.8 10 Nordeste 15 Este 0 -- -- 53
2018-05-04 23:00:00 3.5 2 Oeste 5 Noroeste 0 -- -- 91
2018-05-04 22:00:00 5 0 Calma 4 Oeste 0 -- -- 86
2018-05-04 21:00:00 8.5 0 Calma 7 Nordeste 0 -- -- 78
2018-05-04 20:00:00 10.9 2 Este 13 Sudoeste 0 -- -- 69
2018-05-04 19:00:00 13 8 Nordeste 20 Nordeste 0 -- -- 52
2018-05-04 18:00:00 13.3 7 Norte 19 Norte 0 -- -- 50
2018-05-04 17:00:00 13.4 6 Norte 29 Nordeste 0 -- -- 54
2018-05-04 16:00:00 12.7 11 Norte 28 Norte 0 -- -- 46
2018-05-04 15:00:00 11.7 5 Sudeste 18 Sur 0 -- -- 52
2018-05-04 14:00:00 11.5 8 Sudeste 21 Sur 0 -- -- 59
2018-05-04 13:00:00 9.6 5 Oeste 16 Sur 0 -- -- 66
2018-05-04 12:00:00 6.8 5 Noroeste 12 Oeste 0 -- -- 72
2018-05-04 11:00:00 4.5 3 Noroeste 12 Sur 0 -- -- 81
2018-05-04 10:00:00 2.2 3 Este 9 Sur 0 -- -- 93
2018-05-04 09:00:00 -0.3 0 Calma 6 Sudoeste 0 -- -- 99
2018-05-04 08:00:00 -1 0 Calma 5 Noroeste 0 -- -- 99
2018-05-04 07:00:00 -0.7 0 Calma 5 Noroeste 0 -- -- 98
2018-05-04 06:00:00 -0.6 2 Noroeste 8 Norte 0 -- -- 98
2018-05-04 05:00:00 -0.5 2 Noroeste 6 Noroeste 0 -- -- 98
2018-05-04 04:00:00 -0.5 2 Norte 6 Norte 0 -- -- 97
2018-05-04 03:00:00 0.2 0 Calma 5 Norte 0 -- -- 96
2018-05-04 02:00:00 0.5 2 Oeste 18 Nordeste 0 -- -- 93
2018-05-04 01:00:00 2.1 5 Este 28 Nordeste 0 -- -- 76
2018-05-04 00:00:00 2.4 8 Norte 25 Oeste 0 -- -- 71
2018-05-03 23:00:00 2.9 9 Este 23 Sur 0 -- -- 73
2018-05-03 22:00:00 3.2 8 Noroeste 15 Noroeste 0 -- -- 77
2018-05-03 21:00:00 4.4 4 Sur 23 Noroeste 0 -- -- 72
2018-05-03 20:00:00 6.1 7 Sur 23 Oeste 0 -- -- 69
2018-05-03 19:00:00 6.5 8 Norte 34 Noroeste 0 -- -- 66
2018-05-03 18:00:00 6.9 8 Sudeste 30 Nordeste 0 -- -- 66
2018-05-03 17:00:00 7.3 7 Este 31 Noroeste 0 -- -- 70
2018-05-03 16:00:00 5.9 18 Norte 32 Norte 0 -- -- 69
2018-05-03 15:00:00 6.1 10 Nordeste 28 Este 0 -- -- 76
2018-05-03 14:00:00 5.3 11 Noroeste 30 Noroeste 0 -- -- 76
2018-05-03 13:00:00 4 9 Noroeste 21 Sudoeste 0 -- -- 81
2018-05-03 12:00:00 2.7 5 Este 38 Norte 0 -- -- 85
2018-05-03 11:00:00 2.1 18 Norte 38 Nordeste 0 -- -- 82
2018-05-03 10:00:00 1.9 10 Noroeste 32 Norte 0 -- -- 93
2018-05-03 09:00:00 1.4 11 Norte 26 Noroeste 0.2 -- -- 99
2018-05-03 08:00:00 2 2 Sur 9 Sudoeste 0.2 -- -- 100
2018-05-03 07:00:00 2.7 0 Calma 7 Sur 0 -- -- 100
2018-05-03 06:00:00 3.2 0 Calma 4 Noroeste 0.2 -- -- 100
2018-05-03 05:00:00 3.4 3 Norte 12 Este 0.2 -- -- 99
2018-05-03 04:00:00 4.3 0 Calma 5 Nordeste 0.4 -- -- 100
2018-05-03 03:00:00 4.7 0 Calma 10 Sudeste 0.2 -- -- 100
2018-05-03 02:00:00 5.2 0 Calma 14 Oeste 0.2 -- -- 100
2018-05-03 01:00:00 5.6 2 Oeste 15 Oeste 1 -- -- 100
2018-05-03 00:00:00 5.9 0 Calma 6 Sur 1.4 -- -- 100
2018-05-02 23:00:00 5.9 0 Calma 6 Oeste 1.8 -- -- 100
2018-05-02 22:00:00 5.8 0 Calma 7 Sur 1 -- -- 100
2018-05-02 21:00:00 5.9 2 Noroeste 6 Sudoeste 1.2 -- -- 100
2018-05-02 20:00:00 6.2 0 Calma 7 Noroeste 1.4 -- -- 100
2018-05-02 19:00:00 6.5 0 Calma 4 Norte 1 -- -- 100
2018-05-02 18:00:00 6.4 2 Nordeste 6 Noroeste 1.2 -- -- 100
2018-05-02 17:00:00 6 2 Norte 8 Noroeste 0.8 -- -- 100
2018-05-02 16:00:00 6.1 2 Norte 8 Nordeste 0.6 -- -- 99
2018-05-02 15:00:00 6 2 Este 8 Sudeste 2.6 -- -- 99
2018-05-02 14:00:00 5.8 2 Nordeste 7 Noroeste 1.8 -- -- 98
2018-05-02 13:00:00 5 2 Norte 8 Noroeste 0.8 -- -- 98
2018-05-02 12:00:00 3.6 0 Calma 3 Sudeste 0.8 -- -- 98
2018-05-02 11:00:00 2.5 0 Calma 2 Sur 1 -- -- 96
2018-05-02 10:00:00 1.7 0 Calma 3 Sudoeste 0.2 -- -- 95
2018-05-02 09:00:00 0.8 0 Calma 2 Norte 0 -- -- 94
2018-05-02 08:00:00 0.3 0 Calma 3 Nordeste 0 -- -- 90
2018-05-02 07:00:00 0.6 0 Calma 4 Noroeste 0 -- -- 89
2018-05-02 06:00:00 1.5 0 Calma 6 Norte 0 -- -- 76
2018-05-02 05:00:00 2.4 2 Nordeste 10 Este 0 -- -- 70
2018-05-02 04:00:00 3.1 3 Norte 6 Oeste 0 -- -- 61
2018-05-02 03:00:00 3.5 2 Noroeste 7 Noroeste 0 -- -- 53
2018-05-02 02:00:00 3.6 5 Noroeste 10 Noroeste 0 -- -- 59
2018-05-02 01:00:00 3.6 2 Noroeste 7 Noroeste 0 -- -- 79
2018-05-02 00:00:00 4.1 2 Nordeste 7 Sudoeste 0 -- -- 76
2018-05-01 23:00:00 4.7 0 Calma 10 Sudoeste 0 -- -- 65
2018-05-01 22:00:00 5.2 3 Noroeste 11 Noroeste 0 -- -- 51
2018-05-01 21:00:00 6.8 2 Noroeste 12 Noroeste 0 -- -- 51
2018-05-01 20:00:00 8.7 4 Noroeste 13 Sur 0 -- -- 46
2018-05-01 19:00:00 8 3 Sudeste 10 Sudeste 0 -- -- 54
2018-05-01 18:00:00 9.1 3 Sur 19 Sur 0 -- -- 53
2018-05-01 17:00:00 9.4 5 Sudeste 14 Sudoeste 0 -- -- 52
2018-05-01 16:00:00 9.8 8 Sur 24 Sur 0 -- -- 43
2018-05-01 15:00:00 7.9 5 Nordeste 24 Sur 0 -- -- 48
2018-05-01 14:00:00 7.3 5 Sur 19 Sur 0 -- -- 52
2018-05-01 13:00:00 5.6 6 Noroeste 14 Sur 0 -- -- 59
2018-05-01 12:00:00 5.2 7 Sudeste 14 Sur 0 -- -- 55
2018-05-01 11:00:00 3.2 4 Sur 11 Oeste 0 -- -- 74
2018-05-01 10:00:00 1 3 Sudeste 7 Sur 0.6 -- -- 82
2018-05-01 09:00:00 -0.8 0 Calma 4 Noroeste 0.2 -- -- 88
2018-05-01 08:00:00 -3.7 0 Calma -- -- 0 -- -- 96
2018-05-01 07:00:00 -3.6 0 Calma -- -- 0 -- -- 93
2018-05-01 06:00:00 -3.2 0 Calma -- -- 0 -- -- 94
2018-05-01 05:00:00 -2.6 0 Calma -- -- 0 -- -- 97
2018-05-01 04:00:00 -2.3 0 Calma -- -- 0 -- -- 96
2018-05-01 03:00:00 -0.8 0 Calma -- -- 0 -- -- 92
2018-05-01 02:00:00 -0.5 0 Calma -- -- 0 -- -- 94
2018-05-01 01:00:00 0 0 Calma -- -- 0 -- -- 96
2018-05-01 00:00:00 0.1 0 Calma -- -- 0 -- -- 90
2018-04-30 23:00:00 0.3 0 Calma -- -- 0 -- -- 94
2018-04-30 22:00:00 0.3 0 Calma 8 Sudoeste 0 -- -- 96
2018-04-30 21:00:00 0.9 2 Sudoeste 18 Este 0 -- -- 93
2018-04-30 20:00:00 1.4 3 Sur 24 Nordeste 0.2 -- -- 94
2018-04-30 19:00:00 2.4 8 Noroeste 19 Oeste 0.2 -- -- 89
2018-04-30 18:00:00 2 4 Sur 20 Sudoeste 0 -- -- 94
2018-04-30 17:00:00 2.3 10 Norte 22 Noroeste 0.4 -- -- 85
2018-04-30 16:00:00 3.2 5 Sudeste 24 Nordeste 0.4 -- -- 86
2018-04-30 15:00:00 2.9 3 Nordeste 14 Sur 1.6 -- -- 85
2018-04-30 14:00:00 2.2 7 Este 14 Nordeste 1.8 -- -- 88
2018-04-30 13:00:00 0.7 2 Nordeste 9 Norte 1 -- -- 99
2018-04-30 12:00:00 0.4 0 Calma 5 Sudeste 1.4 -- -- 98
2018-04-30 11:00:00 0 0 Calma 4 Sudoeste 0.2 -- -- 97
2018-04-30 10:00:00 -0.1 0 Calma 0 Calma 0 -- -- 98
2018-04-30 09:00:00 -0.7 0 Calma 3 Noroeste 0 -- -- 98
2018-04-30 08:00:00 -1 0 Calma 3 Noroeste 0 -- -- 98
2018-04-30 07:00:00 -1.1 0 Calma 3 Noroeste 0 -- -- 97
2018-04-30 06:00:00 -1.1 0 Calma 4 Noroeste 0 -- -- 97
2018-04-30 05:00:00 -1 2 Noroeste 4 Noroeste 0 -- -- 96
2018-04-30 04:00:00 -0.9 2 Noroeste 5 Noroeste 0 -- -- 95
2018-04-30 03:00:00 -0.7 0 Calma 9 Noroeste 0 -- -- 96
2018-04-30 02:00:00 -0.5 3 Noroeste 6 Noroeste 0 -- -- 94
2018-04-30 01:00:00 -0.3 2 Noroeste 9 Noroeste 0 -- -- 94
2018-04-30 00:00:00 -0.2 0 Calma 5 Noroeste 0 -- -- 98
2018-04-29 23:00:00 -0.1 0 Calma 4 Norte 0 -- -- 98
2018-04-29 22:00:00 0.1 0 Calma 7 Noroeste 0 -- -- 98
2018-04-29 21:00:00 0.8 0 Calma 26 Oeste 0 -- -- 95
2018-04-29 20:00:00 1.6 5 Noroeste 17 Noroeste 0.2 -- -- 93
2018-04-29 19:00:00 2.4 0 Calma 15 Noroeste 0 -- -- 97
2018-04-29 18:00:00 2.1 5 Noroeste 17 Noroeste 0.2 -- -- 93
2018-04-29 17:00:00 1.9 0 Calma 10 Oeste 0.6 -- -- 96
2018-04-29 16:00:00 3.9 4 Sudoeste 12 Noroeste 0.2 -- -- 90
2018-04-29 15:00:00 1.6 4 Oeste 14 Noroeste 0.6 -- -- 93
2018-04-29 14:00:00 2.4 0 Calma 7 Sudoeste 0.2 -- -- 96
2018-04-29 13:00:00 1.3 3 Noroeste 8 Sur 0.4 -- -- 96
2018-04-29 12:00:00 3.1 3 Sur 10 Sur 0 -- -- 92
2018-04-29 11:00:00 2.6 2 Sur 5 Sur 0 -- -- 96
2018-04-29 10:00:00 1.3 0 Calma 8 Sur 0 -- -- 94
2018-04-29 09:00:00 0 0 Calma 3 Noroeste 0 -- -- 98
2018-04-29 08:00:00 -0.8 0 Calma 2 Noroeste 0 -- -- 95
2018-04-29 07:00:00 -0.8 0 Calma 4 Noroeste 0 -- -- 94
2018-04-29 06:00:00 -0.7 0 Calma 5 Oeste 0 -- -- 92
2018-04-29 05:00:00 0 3 Oeste 5 Noroeste 0 -- -- 93
2018-04-29 04:00:00 -0.1 0 Calma 5 Noroeste 0 -- -- 95
2018-04-29 03:00:00 0.1 0 Calma 5 Noroeste 0 -- -- 94
2018-04-29 02:00:00 0.9 0 Calma 4 Noroeste 0 -- -- 91
2018-04-29 01:00:00 1.7 0 Calma 5 Este 0 -- -- 91
2018-04-29 00:00:00 1.4 0 Calma 2 Noroeste 0 -- -- 94
2018-04-28 23:00:00 2.3 0 Calma 8 Sudoeste 0 -- -- 93
2018-04-28 22:00:00 2.9 3 Sudoeste 7 Sudoeste 0 -- -- 89
2018-04-28 21:00:00 3.8 0 Calma 13 Este 0 -- -- 82
2018-04-28 20:00:00 4.1 5 Sudeste 21 Este 0 -- -- 82
2018-04-28 19:00:00 5.1 4 Este 23 Noroeste 0 -- -- 77
2018-04-28 18:00:00 5.1 10 Noroeste 26 Oeste 0 -- -- 76
2018-04-28 17:00:00 6.5 11 Noroeste 28 Oeste 0 -- -- 67
2018-04-28 16:00:00 6.5 11 Noroeste 28 Noroeste 0 -- -- 66
2018-04-28 15:00:00 7.1 9 Noroeste 24 Noroeste 0 -- -- 63
2018-04-28 14:00:00 8.7 5 Sudeste 16 Oeste 0 -- -- 59
2018-04-28 13:00:00 7.1 3 Sudeste 11 Sur 0 -- -- 61
2018-04-28 12:00:00 7.5 4 Oeste 17 Sudeste 0 -- -- 56
2018-04-28 11:00:00 7 5 Sudeste 12 Sur 0 -- -- 62
2018-04-28 10:00:00 3.6 3 Sudeste 7 Sudeste 0 -- -- 85
2018-04-28 09:00:00 1.9 2 Sur 6 Sur 0 -- -- 97
2018-04-28 08:00:00 1.8 0 Calma 3 Sudoeste 0 -- -- 97
2018-04-28 07:00:00 1.8 2 Sur 5 Noroeste 0 -- -- 96
2018-04-28 06:00:00 1.9 0 Calma 6 Sur 0 -- -- 95
2018-04-28 05:00:00 2.2 0 Calma 5 Sudoeste 0 -- -- 97
2018-04-28 04:00:00 2.3 0 Calma 5 Sudoeste 0 -- -- 96
2018-04-28 03:00:00 2.5 0 Calma 5 Sudeste 0 -- -- 94
2018-04-28 02:00:00 2.5 3 Sudeste 10 Norte 0 -- -- 94
2018-04-28 01:00:00 2.6 2 Sur 10 Norte 0 -- -- 93
2018-04-28 00:00:00 3.4 3 Nordeste 11 Norte 0 -- -- 90
2018-04-27 23:00:00 4 4 Nordeste 16 Norte 0 -- -- 86
2018-04-27 22:00:00 4.9 9 Norte 21 Norte 0 -- -- 79
2018-04-27 21:00:00 6.5 7 Noroeste 17 Noroeste 0 -- -- 71
2018-04-27 20:00:00 8.6 5 Oeste 24 Noroeste 0 -- -- 58
2018-04-27 19:00:00 11.3 7 Noroeste 20 Noroeste 0 -- -- 47
2018-04-27 18:00:00 12.3 5 Este 22 Sur 0 -- -- 44
2018-04-27 17:00:00 12.4 8 Sur 22 Sur 0 -- -- 43
2018-04-27 16:00:00 12.6 9 Sur 23 Sur 0 -- -- 42
2018-04-27 15:00:00 11.9 6 Sudeste 21 Sur 0 -- -- 45
2018-04-27 14:00:00 11.4 6 Sudeste 23 Sur 0 -- -- 49
2018-04-27 13:00:00 11 5 Este 25 Sur 0 -- -- 52
2018-04-27 12:00:00 10.7 7 Sudeste 24 Sur 0 -- -- 52
2018-04-27 11:00:00 8.2 6 Oeste 25 Oeste 0 -- -- 62
2018-04-27 10:00:00 6.5 6 Noroeste 18 Oeste 0 -- -- 74
2018-04-27 09:00:00 5.1 2 Nordeste 15 Sudoeste 0 -- -- 92
2018-04-27 08:00:00 5 2 Norte 10 Oeste 0 -- -- 81
2018-04-27 07:00:00 4.6 0 Calma 8 Norte 0 -- -- 74
2018-04-27 06:00:00 4.8 5 Noroeste 13 Oeste 0 -- -- 69
2018-04-27 05:00:00 6.1 5 Noroeste 22 Oeste 0 -- -- 55
2018-04-27 04:00:00 6.1 3 Nordeste 18 Oeste 0 -- -- 72
2018-04-27 03:00:00 4.6 2 Noroeste 8 Oeste 0 -- -- 73
2018-04-27 02:00:00 4.7 4 Noroeste 9 Noroeste 0 -- -- 73
2018-04-27 01:00:00 5.4 2 Noroeste 7 Noroeste 0 -- -- 86
2018-04-27 00:00:00 6.8 4 Noroeste 7 Noroeste 0 -- -- 88
2018-04-26 23:00:00 8.1 3 Noroeste 7 Noroeste 0 -- -- 82
2018-04-26 22:00:00 10.8 2 Noroeste 8 Noroeste 0 -- -- 70
2018-04-26 21:00:00 13.5 3 Oeste 17 Noroeste 0 -- -- 60
2018-04-26 20:00:00 16.4 3 Norte 22 Noroeste 0 -- -- 48
2018-04-26 19:00:00 17.9 5 Noroeste 15 Noroeste 0 -- -- 48
2018-04-26 18:00:00 18.5 4 Nordeste 15 Sudeste 0 -- -- 45
2018-04-26 17:00:00 17.9 4 Norte 21 Sur 0 -- -- 44
2018-04-26 16:00:00 16.8 5 Nordeste 19 Sur 0 -- -- 49
2018-04-26 15:00:00 14.9 6 Sudoeste 18 Sur 0 -- -- 53
2018-04-26 14:00:00 14.2 5 Este 17 Sur 0 -- -- 55
2018-04-26 13:00:00 11.2 5 Noroeste 14 Oeste 0 -- -- 62
2018-04-26 12:00:00 10.7 4 Sur 15 Sudoeste 0 -- -- 65
2018-04-26 11:00:00 8.6 4 Sur 10 Sur 0 -- -- 72
2018-04-26 10:00:00 4.5 2 Este 10 Sur 0 -- -- 91
2018-04-26 09:00:00 3.3 0 Calma 5 Oeste 0 -- -- 99
2018-04-26 08:00:00 0.9 2 Nordeste 4 Norte 0 -- -- 99
2018-04-26 07:00:00 -0.1 0 Calma 4 Noroeste 0 -- -- 98
2018-04-26 06:00:00 1.5 2 Noroeste 5 Noroeste 0 -- -- 99
2018-04-26 05:00:00 1.9 3 Noroeste 5 Noroeste 0 -- -- 99
2018-04-26 04:00:00 1.9 2 Noroeste 7 Noroeste 0 -- -- 97
2018-04-26 03:00:00 2.6 0 Calma 20 Sudeste 0 -- -- 93
2018-04-26 02:00:00 4.3 9 Este 18 Este 0 -- -- 92
2018-04-26 01:00:00 4.9 2 Sudeste 5 Sur 0 -- -- 95
2018-04-26 00:00:00 5.3 2 Sur 6 Sur 0 -- -- 94
2018-04-25 23:00:00 5.8 2 Sudeste 6 Noroeste 0 -- -- 96
2018-04-25 22:00:00 6.1 3 Sur 6 Sudoeste 0 -- -- 96
2018-04-25 21:00:00 6.6 3 Noroeste 11 Noroeste 0 -- -- 94
2018-04-25 20:00:00 7.6 4 Sur 11 Sur 0 -- -- 93
2018-04-25 19:00:00 8.4 3 Sur 15 Noroeste 0 -- -- 92
2018-04-25 18:00:00 9.9 9 Noroeste 27 Noroeste 0 -- -- 85
2018-04-25 17:00:00 11.3 12 Norte 31 Norte 0 -- -- 80
2018-04-25 16:00:00 13.8 12 Norte 27 Norte 0 -- -- 70
2018-04-25 15:00:00 17.1 5 Nordeste 21 Sur 0 -- -- 56
2018-04-25 14:00:00 17 8 Sur 21 Sur 0 -- -- 54
2018-04-25 13:00:00 15 7 Sudoeste 17 Oeste 0 -- -- 57
2018-04-25 12:00:00 13 4 Sur 17 Sur 0 -- -- 71
2018-04-25 11:00:00 9.6 4 Sur 13 Sudeste 0 -- -- 90
2018-04-25 10:00:00 7 3 Noroeste 6 Noroeste 0 -- -- 98
2018-04-25 09:00:00 5.9 0 Calma 3 Noroeste 0 -- -- 98
2018-04-25 08:00:00 5.4 0 Calma 4 Noroeste 0 -- -- 88
2018-04-25 07:00:00 6.1 0 Calma 4 Noroeste 0 -- -- 89
2018-04-25 06:00:00 6.2 4 Noroeste 8 Sudoeste 0 -- -- 92
2018-04-25 05:00:00 8.3 4 Noroeste 6 Noroeste 0 -- -- 78
2018-04-25 04:00:00 8.8 0 Calma 9 Noroeste 0 -- -- 76
2018-04-25 03:00:00 8.8 5 Noroeste 10 Noroeste 0 -- -- 79
2018-04-25 02:00:00 8.9 0 Calma 6 Oeste 0 -- -- 87
2018-04-25 01:00:00 11.4 0 Calma 24 Este 0 -- -- 68
2018-04-25 00:00:00 14.2 18 Nordeste 24 Este 0 -- -- 74
2018-04-24 23:00:00 11 4 Norte 8 Noroeste 0 -- -- 73
2018-04-24 22:00:00 12.8 2 Norte 18 Oeste 0 -- -- 79
2018-04-24 21:00:00 15 5 Oeste 29 Norte 0 -- -- 68
2018-04-24 20:00:00 16.1 17 Norte 28 Norte 0 -- -- 74
2018-04-24 19:00:00 18.9 13 Noroeste 28 Norte 0 -- -- 64
2018-04-24 18:00:00 20.3 9 Noroeste 24 Noroeste 0 -- -- 54
2018-04-24 17:00:00 22.3 12 Noroeste 26 Noroeste 0 -- -- 42
2018-04-24 16:00:00 22.8 6 Sur 22 Noroeste 0 -- -- 27
2018-04-24 15:00:00 22.1 6 Nordeste 23 Sudeste 0 -- -- 31
2018-04-24 14:00:00 22.3 6 Norte 21 Sur 0 -- -- 33
2018-04-24 13:00:00 21.4 7 Sur 17 Este 0 -- -- 35
2018-04-24 12:00:00 20 9 Sudeste 17 Sur 0 -- -- 40
2018-04-24 11:00:00 17.7 4 Nordeste 18 Este 0 -- -- 51
2018-04-24 10:00:00 15.1 12 Este 24 Este 0 -- -- 60
2018-04-24 09:00:00 13.2 17 Nordeste 27 Este 0 -- -- 67
2018-04-24 08:00:00 12 18 Nordeste 25 Este 0 -- -- 72
2018-04-24 07:00:00 12.3 11 Nordeste 20 Nordeste 0 -- -- 72
2018-04-24 06:00:00 12.5 14 Nordeste 19 Nordeste 0 -- -- 73
2018-04-24 05:00:00 12.2 9 Nordeste 19 Nordeste 0 -- -- 73
2018-04-24 04:00:00 12.6 10 Nordeste 17 Nordeste 0 -- -- 69
2018-04-24 03:00:00 13 9 Nordeste 20 Este 0 -- -- 68
2018-04-24 02:00:00 13.2 8 Nordeste 25 Nordeste 0 -- -- 68
2018-04-24 01:00:00 13.3 14 Nordeste 24 Nordeste 0 -- -- 64
2018-04-24 00:00:00 13.7 16 Nordeste 25 Nordeste 0 -- -- 61